createdAt,value
2024-05-09T00:00:35.906Z,10.68
2024-05-09T00:03:07.434Z,10.05
2024-05-09T00:05:34.710Z,10.38
2024-05-09T00:08:01.583Z,11.13
2024-05-09T00:10:35.197Z,10.15
2024-05-09T00:13:04.583Z,10.70
2024-05-09T00:15:31.576Z,10.55
2024-05-09T00:17:58.354Z,10.48
2024-05-09T00:20:33.079Z,10.20
2024-05-09T00:23:06.694Z,10.02
2024-05-09T00:25:33.445Z,9.23
2024-05-09T00:28:00.027Z,9.10
2024-05-09T00:30:33.569Z,9.85
2024-05-09T00:33:02.893Z,9.55
2024-05-09T00:35:29.912Z,10.18
2024-05-09T00:37:56.659Z,9.23
2024-05-09T00:40:31.145Z,10.07
2024-05-09T00:43:05.713Z,10.15
2024-05-09T00:45:33.192Z,9.23
2024-05-09T00:48:01.738Z,9.88
2024-05-09T00:50:35.678Z,9.90
2024-05-09T00:53:05.274Z,9.80
2024-05-09T00:55:32.105Z,11.07
2024-05-09T00:57:58.748Z,11.48
2024-05-09T01:00:31.733Z,14.18
2024-05-09T01:03:05.808Z,15.27
2024-05-09T01:05:32.811Z,15.63
2024-05-09T01:07:59.510Z,16.42
2024-05-09T01:10:33.579Z,16.90
2024-05-09T01:13:02.555Z,17.42
2024-05-09T01:15:29.137Z,17.08
2024-05-09T01:17:56.675Z,16.35
2024-05-09T01:20:32.219Z,16.27
2024-05-09T01:23:07.210Z,14.45
2024-05-09T01:25:33.940Z,14.50
2024-05-09T01:28:00.511Z,14.23
2024-05-09T01:30:33.889Z,12.52
2024-05-09T01:33:03.206Z,14.20
2024-05-09T01:35:30.283Z,14.18
2024-05-09T01:37:57.166Z,14.85
2024-05-09T01:40:33.440Z,15.38
2024-05-09T01:43:04.699Z,14.35
2024-05-09T01:45:31.384Z,15.07
2024-05-09T01:47:58.372Z,15.23
2024-05-09T01:50:37.199Z,17.08
2024-05-09T01:53:07.899Z,15.68
2024-05-09T01:55:34.731Z,14.45
2024-05-09T01:58:01.386Z,15.00
2024-05-09T02:00:37.696Z,15.98
2024-05-09T02:03:14.909Z,16.33
2024-05-09T02:05:44.717Z,15.55
2024-05-09T02:08:15.977Z,14.70
2024-05-09T02:10:46.358Z,16.10
2024-05-09T02:13:13.726Z,15.98
2024-05-09T02:15:40.437Z,15.95
2024-05-09T02:18:07.989Z,15.65
2024-05-09T02:20:36.834Z,15.18
2024-05-09T02:23:05.999Z,16.10
2024-05-09T02:25:33.152Z,15.70
2024-05-09T02:28:01.180Z,15.23
2024-05-09T02:30:38.111Z,15.00
2024-05-09T02:33:08.992Z,15.68
2024-05-09T02:35:36.606Z,16.40
2024-05-09T02:38:03.495Z,17.08
2024-05-09T02:40:36.660Z,17.42
2024-05-09T02:43:10.178Z,19.85
2024-05-09T02:45:38.221Z,18.60
2024-05-09T02:48:05.711Z,17.23
2024-05-09T02:50:38.008Z,16.58
2024-05-09T02:53:10.153Z,18.60
2024-05-09T02:55:37.771Z,19.55
2024-05-09T02:58:04.593Z,16.65
2024-05-09T03:00:38.445Z,17.75
2024-05-09T03:03:09.565Z,16.35
2024-05-09T03:05:37.839Z,15.65
2024-05-09T03:08:04.891Z,15.05
2024-05-09T03:10:36.161Z,17.05
2024-05-09T03:13:13.177Z,17.05
2024-05-09T03:15:41.211Z,17.48
2024-05-09T03:18:08.429Z,16.27
2024-05-09T03:20:36.339Z,15.32
2024-05-09T03:23:05.070Z,14.57
2024-05-09T03:25:32.117Z,15.50
2024-05-09T03:27:59.246Z,15.98
2024-05-09T03:30:36.783Z,14.95
2024-05-09T03:33:17.404Z,16.08
2024-05-09T03:35:45.852Z,15.18
2024-05-09T03:38:12.839Z,16.67
2024-05-09T03:40:46.779Z,15.73
2024-05-09T03:43:13.891Z,17.25
2024-05-09T03:45:42.913Z,15.27
2024-05-09T03:48:09.875Z,16.30
2024-05-09T03:50:37.370Z,15.68
2024-05-09T03:53:04.716Z,15.05
2024-05-09T03:55:31.478Z,14.65
2024-05-09T03:57:58.193Z,13.60
2024-05-09T04:00:31.496Z,15.80
2024-05-09T04:03:05.897Z,15.20
2024-05-09T04:05:34.402Z,13.68
2024-05-09T04:08:01.640Z,14.63
2024-05-09T04:10:33.240Z,15.05
2024-05-09T04:13:01.574Z,13.50
2024-05-09T04:15:28.222Z,16.08
2024-05-09T04:17:55.082Z,15.35
2024-05-09T04:20:32.850Z,16.27
2024-05-09T04:23:05.850Z,14.90
2024-05-09T04:25:32.685Z,14.77
2024-05-09T04:27:59.257Z,14.77
2024-05-09T04:30:34.698Z,15.68
2024-05-09T04:33:06.437Z,15.43
2024-05-09T04:35:33.960Z,14.35
2024-05-09T04:38:00.793Z,14.70
2024-05-09T04:40:33.215Z,14.77
2024-05-09T04:43:03.616Z,14.60
2024-05-09T04:45:30.418Z,13.60
2024-05-09T04:47:57.421Z,12.88
2024-05-09T04:50:33.513Z,13.38
2024-05-09T04:53:04.392Z,14.63
2024-05-09T04:55:31.603Z,14.38
2024-05-09T04:57:58.250Z,13.40
2024-05-09T05:00:32.033Z,14.00
2024-05-09T05:03:05.928Z,15.55
2024-05-09T05:05:32.936Z,15.77
2024-05-09T05:07:59.563Z,15.80
2024-05-09T05:10:33.752Z,16.63
2024-05-09T05:13:23.265Z,16.20
2024-05-09T05:15:53.714Z,16.50
2024-05-09T05:18:21.122Z,17.80
2024-05-09T05:20:48.136Z,20.52
2024-05-09T05:23:16.586Z,18.67
2024-05-09T05:25:43.734Z,18.83
2024-05-09T05:28:10.839Z,18.73
2024-05-09T05:30:38.156Z,17.95
2024-05-09T05:33:05.898Z,17.80
2024-05-09T05:35:33.003Z,17.92
2024-05-09T05:38:00.148Z,17.17
2024-05-09T05:40:33.361Z,17.30
2024-05-09T05:43:04.898Z,17.27
2024-05-09T05:45:31.479Z,17.42
2024-05-09T05:47:58.242Z,16.92
2024-05-09T05:50:32.620Z,17.80
2024-05-09T05:53:03.319Z,16.25
2024-05-09T05:55:30.293Z,16.92
2024-05-09T05:57:56.856Z,17.08
2024-05-09T06:00:29.936Z,17.48
2024-05-09T06:03:04.703Z,16.35
2024-05-09T06:05:31.647Z,17.52
2024-05-09T06:07:58.330Z,16.45
2024-05-09T06:10:30.140Z,17.52
2024-05-09T06:13:04.274Z,16.85
2024-05-09T06:15:30.898Z,17.35
2024-05-09T06:17:57.634Z,16.80
2024-05-09T06:20:33.910Z,16.73
2024-05-09T06:23:03.529Z,16.45
2024-05-09T06:25:30.241Z,15.65
2024-05-09T06:27:56.811Z,16.10
2024-05-09T06:30:30.396Z,16.65
2024-05-09T06:33:05.365Z,14.82
2024-05-09T06:35:32.780Z,15.57
2024-05-09T06:37:59.571Z,16.05
2024-05-09T06:40:35.458Z,15.35
2024-05-09T06:43:04.934Z,15.48
2024-05-09T06:45:31.478Z,14.80
2024-05-09T06:47:58.229Z,13.48
2024-05-09T06:50:28.353Z,13.90
2024-05-09T06:52:58.375Z,15.00
2024-05-09T06:55:24.958Z,14.85
2024-05-09T06:57:51.597Z,14.80
2024-05-09T07:00:26.883Z,14.00
2024-05-09T07:02:59.074Z,13.25
2024-05-09T07:05:26.904Z,14.80
2024-05-09T07:07:54.580Z,14.75
2024-05-09T07:10:28.668Z,14.57
2024-05-09T07:12:59.410Z,14.07
2024-05-09T07:15:26.434Z,13.40
2024-05-09T07:17:53.158Z,14.50
2024-05-09T07:20:27.642Z,14.05
2024-05-09T07:23:01.949Z,13.55
2024-05-09T07:25:28.758Z,12.95
2024-05-09T07:27:55.484Z,13.48
2024-05-09T07:30:27.741Z,12.38
2024-05-09T07:33:01.471Z,11.60
2024-05-09T07:35:29.113Z,11.10
2024-05-09T07:37:56.045Z,11.07
2024-05-09T07:42:52.562Z,9.63
2024-05-09T07:45:40.470Z,9.70
2024-05-09T07:53:36.589Z,7.80
2024-05-09T07:55:56.001Z,6.70
2024-05-09T07:58:27.106Z,9.20
2024-05-09T08:00:54.322Z,8.30
2024-05-09T08:03:21.044Z,9.73
2024-05-09T08:05:47.752Z,6.82
2024-05-09T08:08:14.337Z,7.53
2024-05-09T08:10:40.996Z,7.32
2024-05-09T08:13:07.814Z,5.90
2024-05-09T08:15:34.582Z,6.78
2024-05-09T08:18:01.391Z,6.18
2024-05-09T08:20:33.449Z,5.47
2024-05-09T08:23:01.705Z,5.65
2024-05-09T08:25:28.393Z,6.03
2024-05-09T08:27:55.063Z,4.82
2024-05-09T08:30:29.702Z,4.70
2024-05-09T08:33:03.604Z,4.60
2024-05-09T08:35:30.258Z,5.07
2024-05-09T08:37:56.872Z,4.15
2024-05-09T08:40:30.768Z,4.45
2024-05-09T08:43:02.604Z,4.25
2024-05-09T08:45:29.610Z,4.60
2024-05-09T08:47:56.923Z,3.92
2024-05-09T08:50:31.949Z,3.78
2024-05-09T08:53:05.005Z,3.90
2024-05-09T08:55:31.795Z,3.80
2024-05-09T08:57:59.263Z,3.75
2024-05-09T09:00:35.568Z,4.00
2024-05-09T09:03:06.027Z,4.38
2024-05-09T09:05:37.211Z,3.50
2024-05-09T09:08:07.988Z,4.07
2024-05-09T09:10:35.346Z,3.85
2024-05-09T09:13:04.207Z,3.85
2024-05-09T09:15:31.491Z,3.97
2024-05-09T09:17:59.806Z,3.78
2024-05-09T09:20:34.128Z,3.67
2024-05-09T09:23:03.381Z,3.25
2024-05-09T09:25:30.073Z,3.05
2024-05-09T09:27:58.109Z,3.22
2024-05-09T09:30:34.683Z,3.28
2024-05-09T09:33:04.569Z,3.10
2024-05-09T09:35:31.393Z,3.17
2024-05-09T09:38:01.957Z,2.95
2024-05-09T09:40:36.133Z,2.97
2024-05-09T09:43:09.466Z,3.40
2024-05-09T09:45:36.541Z,3.20
2024-05-09T09:48:04.422Z,3.13
2024-05-09T09:50:34.787Z,3.10
2024-05-09T09:53:03.942Z,2.70
2024-05-09T09:55:32.724Z,2.90
2024-05-09T09:57:59.758Z,2.20
2024-05-09T10:00:32.542Z,2.60
2024-05-09T10:03:00.553Z,3.05
2024-05-09T10:05:27.693Z,2.47
2024-05-09T10:07:55.400Z,2.53
2024-05-09T10:10:31.870Z,2.83
2024-05-09T10:13:00.529Z,2.83
2024-05-09T10:15:27.599Z,2.97
2024-05-09T10:17:54.727Z,3.08
2024-05-09T10:20:28.022Z,3.05
2024-05-09T10:22:58.787Z,2.72
2024-05-09T10:25:25.500Z,2.58
2024-05-09T10:27:55.985Z,3.15
2024-05-09T10:30:33.832Z,2.78
2024-05-09T10:33:02.696Z,2.50
2024-05-09T10:35:31.419Z,2.88
2024-05-09T10:38:05.813Z,2.40
2024-05-09T10:40:32.620Z,2.63
2024-05-09T10:43:02.544Z,2.90
2024-05-09T10:45:31.961Z,2.45
2024-05-09T10:47:58.833Z,2.60
2024-05-09T10:50:29.174Z,3.00
2024-05-09T10:53:00.465Z,2.38
2024-05-09T10:55:27.431Z,2.58
2024-05-09T10:57:54.139Z,2.33
2024-05-09T11:00:27.585Z,3.10
2024-05-09T11:03:00.018Z,2.40
2024-05-09T11:05:27.006Z,2.15
2024-05-09T11:07:53.818Z,2.45
2024-05-09T11:10:27.422Z,2.33
2024-05-09T11:12:58.540Z,2.03
2024-05-09T11:15:25.879Z,2.47
2024-05-09T11:17:53.064Z,2.55
2024-05-09T11:20:26.720Z,2.80
2024-05-09T11:22:57.761Z,2.67
2024-05-09T11:25:24.454Z,2.70
2024-05-09T11:27:51.180Z,2.30
2024-05-09T11:30:26.704Z,2.40
2024-05-09T11:32:58.796Z,2.78
2024-05-09T11:35:26.464Z,2.88
2024-05-09T11:37:53.059Z,2.58
2024-05-09T11:40:25.435Z,2.65
2024-05-09T11:42:55.292Z,2.67
2024-05-09T11:45:22.044Z,2.90
2024-05-09T11:47:48.954Z,2.90
2024-05-09T11:50:22.621Z,2.88
2024-05-09T11:52:56.059Z,2.80
2024-05-09T11:55:27.391Z,2.97
2024-05-09T11:57:55.016Z,2.65
2024-05-09T12:00:29.514Z,2.67
2024-05-09T12:03:04.770Z,3.05
2024-05-09T12:05:32.064Z,2.70
2024-05-09T12:07:58.942Z,2.85
2024-05-09T12:10:32.709Z,2.92
2024-05-09T12:13:02.019Z,2.75
2024-05-09T12:15:28.954Z,2.92
2024-05-09T12:17:58.207Z,1.88
2024-05-09T12:20:34.776Z,2.70
2024-05-09T12:23:04.718Z,2.60
2024-05-09T12:25:31.317Z,2.83
2024-05-09T12:27:57.912Z,2.63
2024-05-09T12:30:34.437Z,2.75
2024-05-09T12:33:05.052Z,2.40
2024-05-09T12:35:31.924Z,1.90
2024-05-09T12:37:58.660Z,2.67
2024-05-09T12:40:34.311Z,2.53
2024-05-09T12:43:04.892Z,2.35
2024-05-09T12:45:31.986Z,2.20
2024-05-09T12:47:58.848Z,2.28
2024-05-09T12:50:31.950Z,2.60
2024-05-09T12:53:01.112Z,2.13
2024-05-09T12:55:28.600Z,2.45
2024-05-09T12:57:58.299Z,2.33
2024-05-09T13:00:31.425Z,2.25
2024-05-09T13:03:01.144Z,2.40
2024-05-09T13:05:28.287Z,2.15
2024-05-09T13:07:56.689Z,2.03
2024-05-09T13:10:30.744Z,1.80
2024-05-09T13:13:00.103Z,2.25
2024-05-09T13:15:27.235Z,2.33
2024-05-09T13:17:54.809Z,2.10
2024-05-09T13:20:29.552Z,2.20
2024-05-09T13:23:01.383Z,2.10
2024-05-09T13:25:28.111Z,2.17
2024-05-09T13:27:54.979Z,2.30
2024-05-09T13:30:29.324Z,2.30
2024-05-09T13:33:04.838Z,2.38
2024-05-09T13:35:32.130Z,2.17
2024-05-09T13:38:01.500Z,1.92
2024-05-09T13:40:33.465Z,2.00
2024-05-09T13:43:02.813Z,2.10
2024-05-09T13:45:29.581Z,1.90
2024-05-09T13:47:57.095Z,1.70
2024-05-09T13:50:32.922Z,1.88
2024-05-09T13:53:02.499Z,2.17
2024-05-09T13:55:29.091Z,1.90
2024-05-09T13:57:56.018Z,1.95
2024-05-09T14:00:32.458Z,1.83
2024-05-09T14:03:09.569Z,2.03
2024-05-09T14:05:36.560Z,1.90
2024-05-09T14:08:03.378Z,2.22
2024-05-09T14:10:31.925Z,2.10
2024-05-09T14:12:59.914Z,2.10
2024-05-09T14:15:26.756Z,1.70
2024-05-09T14:17:53.846Z,2.03
2024-05-09T14:20:30.063Z,2.30
2024-05-09T14:22:58.980Z,2.13
2024-05-09T14:25:28.286Z,2.30
2024-05-09T14:27:55.766Z,1.98
2024-05-09T14:30:30.410Z,1.92
2024-05-09T14:33:03.156Z,1.90
2024-05-09T14:35:29.826Z,2.28
2024-05-09T14:37:56.375Z,1.98
2024-05-09T14:40:35.882Z,2.33
2024-05-09T14:43:07.753Z,1.85
2024-05-09T14:45:34.659Z,2.05
2024-05-09T14:48:02.248Z,2.10
2024-05-09T14:50:36.177Z,1.75
2024-05-09T14:53:10.078Z,1.83
2024-05-09T14:55:38.712Z,2.13
2024-05-09T14:58:07.224Z,2.05
2024-05-09T15:00:38.382Z,2.25
2024-05-09T15:03:06.681Z,2.22
2024-05-09T15:05:33.405Z,1.92
2024-05-09T15:08:00.188Z,1.80
2024-05-09T15:10:34.132Z,1.83
2024-05-09T15:13:04.041Z,1.83
2024-05-09T15:15:31.071Z,1.88
2024-05-09T15:17:58.788Z,2.40
2024-05-09T15:20:33.067Z,1.80
2024-05-09T15:23:02.560Z,3.22
2024-05-09T15:25:29.427Z,4.88
2024-05-09T15:27:56.351Z,1.80
2024-05-09T15:30:30.344Z,2.00
2024-05-09T15:32:59.621Z,9.07
2024-05-09T15:35:26.305Z,23.55
2024-05-09T15:37:52.862Z,7.18
2024-05-09T15:40:30.383Z,2.20
2024-05-09T15:43:04.379Z,2.00
2024-05-09T15:45:31.058Z,2.13
2024-05-09T15:47:57.933Z,3.75
2024-05-09T15:50:36.506Z,2.53
2024-05-09T15:53:07.172Z,2.17
2024-05-09T15:55:34.893Z,2.00
2024-05-09T15:58:02.278Z,2.33
2024-05-09T16:00:37.210Z,1.95
2024-05-09T16:03:07.737Z,2.30
2024-05-09T16:05:34.739Z,1.98
2024-05-09T16:08:01.643Z,2.13
2024-05-09T16:10:32.674Z,1.80
2024-05-09T16:13:01.275Z,2.00
2024-05-09T16:15:28.038Z,2.40
2024-05-09T16:17:55.309Z,2.55
2024-05-09T16:20:33.711Z,2.30
2024-05-09T16:23:05.984Z,2.10
2024-05-09T16:25:32.662Z,2.22
2024-05-09T16:27:59.552Z,2.70
2024-05-09T16:30:33.499Z,2.05
2024-05-09T16:33:02.683Z,8.30
2024-05-09T16:35:29.600Z,2.60
2024-05-09T16:37:56.183Z,2.40
2024-05-09T16:40:30.314Z,3.65
2024-05-09T16:43:04.852Z,2.30
2024-05-09T16:45:31.922Z,2.08
2024-05-09T16:47:59.647Z,1.90
2024-05-09T16:50:31.888Z,2.55
2024-05-09T16:53:00.465Z,5.45
2024-05-09T16:55:27.362Z,3.40
2024-05-09T16:57:54.411Z,4.10
2024-05-09T17:00:31.384Z,5.30
2024-05-09T17:03:06.780Z,8.65
2024-05-09T17:05:34.301Z,5.18
2024-05-09T17:08:01.439Z,2.38
2024-05-09T17:10:32.841Z,2.40
2024-05-09T17:13:02.012Z,2.40
2024-05-09T17:15:28.770Z,2.33
2024-05-09T17:17:55.651Z,2.33
2024-05-09T17:20:29.578Z,2.15
2024-05-09T17:23:01.584Z,2.10
2024-05-09T17:25:28.366Z,2.17
2024-05-09T17:27:55.244Z,1.90
2024-05-09T17:30:29.075Z,2.20
2024-05-09T17:33:02.429Z,2.25
2024-05-09T17:35:29.153Z,2.30
2024-05-09T17:37:56.071Z,1.98
2024-05-09T17:40:30.940Z,2.10
2024-05-09T17:43:01.477Z,2.08
2024-05-09T17:45:28.293Z,2.00
2024-05-09T17:47:55.173Z,2.10
2024-05-09T17:50:27.929Z,1.95
2024-05-09T17:53:01.021Z,1.90
2024-05-09T17:55:28.470Z,2.00
2024-05-09T17:57:55.448Z,2.33
2024-05-09T18:00:32.702Z,2.17
2024-05-09T18:03:05.293Z,2.08
2024-05-09T18:05:32.282Z,2.25
2024-05-09T18:07:59.146Z,1.98
2024-05-09T18:10:33.083Z,1.98
2024-05-09T18:13:05.798Z,2.10
2024-05-09T18:15:33.070Z,2.20
2024-05-09T18:18:00.132Z,2.58
2024-05-09T18:20:37.330Z,2.30
2024-05-09T18:23:10.207Z,2.10
2024-05-09T18:25:36.812Z,2.10
2024-05-09T18:28:03.566Z,2.03
2024-05-09T18:30:34.938Z,2.40
2024-05-09T18:33:08.169Z,1.83
2024-05-09T18:35:36.232Z,2.00
2024-05-09T18:38:03.316Z,2.25
2024-05-09T18:40:34.813Z,1.92
2024-05-09T18:43:05.641Z,2.30
2024-05-09T18:45:33.668Z,1.90
2024-05-09T18:48:00.648Z,2.03
2024-05-09T18:50:34.904Z,2.00
2024-05-09T18:53:10.179Z,2.20
2024-05-09T18:55:37.258Z,2.13
2024-05-09T18:58:04.579Z,2.20
2024-05-09T19:00:35.957Z,2.10
2024-05-09T19:03:10.927Z,2.50
2024-05-09T19:05:40.655Z,2.30
2024-05-09T19:08:08.428Z,2.10
2024-05-09T19:10:36.915Z,2.30
2024-05-09T19:13:08.612Z,2.05
2024-05-09T19:15:39.346Z,2.28
2024-05-09T19:18:06.662Z,2.25
2024-05-09T19:20:35.365Z,2.28
2024-05-09T19:23:03.613Z,2.35
2024-05-09T19:25:30.528Z,2.13
2024-05-09T19:27:57.257Z,2.72
2024-05-09T19:30:32.896Z,2.72
2024-05-09T19:33:06.150Z,2.00
2024-05-09T19:35:33.068Z,2.30
2024-05-09T19:37:59.913Z,2.75
2024-05-09T19:40:31.459Z,2.65
2024-05-09T19:43:00.677Z,2.70
2024-05-09T19:45:27.521Z,2.80
2024-05-09T19:47:54.437Z,2.60
2024-05-09T19:50:30.166Z,2.70
2024-05-09T19:53:03.203Z,2.55
2024-05-09T19:55:29.880Z,2.47
2024-05-09T19:57:56.935Z,2.60
2024-05-09T20:00:32.325Z,2.10
2024-05-09T20:03:02.553Z,2.45
2024-05-09T20:05:31.107Z,2.35
2024-05-09T20:07:57.996Z,2.30
2024-05-09T20:10:29.915Z,2.55
2024-05-09T20:12:59.652Z,2.47
2024-05-09T20:15:26.431Z,2.50
2024-05-09T20:17:53.827Z,2.78
2024-05-09T20:20:28.696Z,2.83
2024-05-09T20:23:03.137Z,2.70
2024-05-09T20:25:29.883Z,2.80
2024-05-09T20:27:56.473Z,2.80
2024-05-09T20:30:30.535Z,2.70
2024-05-09T20:32:59.793Z,2.95
2024-05-09T20:35:26.798Z,3.00
2024-05-09T20:37:53.503Z,3.15
2024-05-09T20:40:28.324Z,2.45
2024-05-09T20:42:59.180Z,2.90
2024-05-09T20:45:25.972Z,2.50
2024-05-09T20:47:53.082Z,2.30
2024-05-09T20:50:28.436Z,2.58
2024-05-09T20:53:02.886Z,2.70
2024-05-09T20:55:29.922Z,2.70
2024-05-09T20:57:56.961Z,2.40
2024-05-09T21:00:30.296Z,2.70
2024-05-09T21:03:05.736Z,2.70
2024-05-09T21:05:32.725Z,2.80
2024-05-09T21:07:59.401Z,2.33
2024-05-09T21:10:27.081Z,2.35
2024-05-09T21:12:54.104Z,2.40
2024-05-09T21:15:20.675Z,2.47
2024-05-09T21:17:47.317Z,2.58
2024-05-09T21:20:20.685Z,3.05
2024-05-09T21:22:50.970Z,3.30
2024-05-09T21:25:17.588Z,3.63
2024-05-09T21:27:44.297Z,3.45
2024-05-09T21:30:18.434Z,3.20
2024-05-09T21:32:49.919Z,3.45
2024-05-09T21:35:17.790Z,3.63
2024-05-09T21:37:44.517Z,3.80
2024-05-09T21:40:13.938Z,3.25
2024-05-09T21:42:48.173Z,3.60
2024-05-09T21:45:14.964Z,3.55
2024-05-09T21:47:41.827Z,3.20
2024-05-09T21:50:12.465Z,3.20
2024-05-09T21:52:41.912Z,3.20
2024-05-09T21:55:08.848Z,3.30
2024-05-09T21:57:35.511Z,3.10
2024-05-09T22:00:02.277Z,3.25
2024-05-09T22:02:29.056Z,3.80
2024-05-09T22:04:55.948Z,3.33
2024-05-09T22:07:23.631Z,3.10
2024-05-09T22:09:50.323Z,3.33
2024-05-09T22:12:16.910Z,3.70
2024-05-09T22:14:43.490Z,3.13
2024-05-09T22:17:10.064Z,4.07
2024-05-09T22:19:36.765Z,3.63
2024-05-09T22:22:03.726Z,3.55
2024-05-09T22:24:30.370Z,3.92
2024-05-09T22:26:56.974Z,3.40
2024-05-09T22:29:23.614Z,3.22
2024-05-09T22:31:50.162Z,2.67
2024-05-09T22:34:18.285Z,3.10
2024-05-09T22:36:44.945Z,2.88
2024-05-09T22:39:11.632Z,3.47
2024-05-09T22:41:40.343Z,3.13
2024-05-09T22:44:06.927Z,3.33
2024-05-09T22:46:33.589Z,3.10
2024-05-09T22:49:00.295Z,2.92
2024-05-09T22:51:26.962Z,3.10
2024-05-09T22:53:53.530Z,2.80
2024-05-09T22:56:27.473Z,3.08
2024-05-09T22:58:54.479Z,2.92
2024-05-09T23:01:22.309Z,2.90
2024-05-09T23:03:50.411Z,2.90
2024-05-09T23:06:17.096Z,3.53
2024-05-09T23:08:43.642Z,3.40
2024-05-09T23:11:10.416Z,3.15
2024-05-09T23:13:37.012Z,3.10
2024-05-09T23:16:03.786Z,2.90
2024-05-09T23:18:30.553Z,3.05
2024-05-09T23:20:57.171Z,4.10
2024-05-09T23:23:23.723Z,3.80
2024-05-09T23:25:50.471Z,3.85
2024-05-09T23:28:17.039Z,3.50
2024-05-09T23:30:43.749Z,3.78
2024-05-09T23:33:12.410Z,3.72
2024-05-09T23:35:41.551Z,3.80
2024-05-09T23:38:08.130Z,3.88
2024-05-09T23:40:38.925Z,3.40
2024-05-09T23:43:11.494Z,3.40
2024-05-09T23:45:39.241Z,3.22
2024-05-09T23:48:06.731Z,2.90
2024-05-09T23:50:36.708Z,3.15
2024-05-09T23:53:06.963Z,3.55
2024-05-09T23:55:34.831Z,4.05
2024-05-09T23:58:01.595Z,3.20
